sensor_id;sensor_type;location;lat;lon;timestamp;pressure;altitude;pressure_sealevel;temperature;humidity
60489;BME280;46331;49.252;8.904;2023-05-08T00:00:10;100018.16;;;14.76;100.00
60489;BME280;46331;49.252;8.904;2023-05-08T00:00:58;100020.84;;;14.81;100.00
60489;BME280;46331;49.252;8.904;2023-05-08T00:01:38;100011.19;;;14.75;100.00
60489;BME280;46331;49.252;8.904;2023-05-08T00:02:19;100018.94;;;14.76;100.00
60489;BME280;46331;49.252;8.904;2023-05-08T00:02:59;100013.88;;;14.75;100.00
60489;BME280;46331;49.252;8.904;2023-05-08T00:03:40;100015.22;;;14.77;100.00
60489;BME280;46331;49.252;8.904;2023-05-08T00:04:20;100018.69;;;14.78;100.00
60489;BME280;46331;49.252;8.904;2023-05-08T00:05:01;100017.91;;;14.82;100.00
60489;BME280;46331;49.252;8.904;2023-05-08T00:05:42;100024.63;;;14.85;100.00
60489;BME280;46331;49.252;8.904;2023-05-08T00:06:22;100025.16;;;14.87;100.00
60489;BME280;46331;49.252;8.904;2023-05-08T00:07:03;100020.91;;;14.91;100.00
60489;BME280;46331;49.252;8.904;2023-05-08T00:07:43;100019.06;;;14.97;100.00
60489;BME280;46331;49.252;8.904;2023-05-08T00:08:24;100023.34;;;14.98;100.00
60489;BME280;46331;49.252;8.904;2023-05-08T00:09:05;100023.88;;;15.00;100.00
60489;BME280;46331;49.252;8.904;2023-05-08T00:09:45;100022.56;;;15.02;100.00
60489;BME280;46331;49.252;8.904;2023-05-08T00:10:29;100020.44;;;15.05;100.00
60489;BME280;46331;49.252;8.904;2023-05-08T00:11:10;100021.50;;;15.04;100.00
60489;BME280;46331;49.252;8.904;2023-05-08T00:11:50;100018.31;;;15.07;100.00
60489;BME280;46331;49.252;8.904;2023-05-08T00:12:31;100021.00;;;15.07;100.00
60489;BME280;46331;49.252;8.904;2023-05-08T00:13:11;100026.06;;;15.08;100.00
60489;BME280;46331;49.252;8.904;2023-05-08T00:13:52;100016.19;;;15.09;100.00
60489;BME280;46331;49.252;8.904;2023-05-08T00:14:32;100017.81;;;15.10;100.00
60489;BME280;46331;49.252;8.904;2023-05-08T00:15:13;100018.84;;;15.09;100.00
60489;BME280;46331;49.252;8.904;2023-05-08T00:15:53;100023.94;;;15.10;100.00
60489;BME280;46331;49.252;8.904;2023-05-08T00:16:34;100023.41;;;15.13;100.00
60489;BME280;46331;49.252;8.904;2023-05-08T00:17:14;100022.63;;;15.13;100.00
60489;BME280;46331;49.252;8.904;2023-05-08T00:17:56;100027.97;;;15.13;100.00
60489;BME280;46331;49.252;8.904;2023-05-08T00:18:36;100026.63;;;15.15;100.00
60489;BME280;46331;49.252;8.904;2023-05-08T00:19:17;100020.50;;;15.15;100.00
60489;BME280;46331;49.252;8.904;2023-05-08T00:19:58;100025.31;;;15.18;100.00
60489;BME280;46331;49.252;8.904;2023-05-08T00:20:39;100025.31;;;15.18;100.00
60489;BME280;46331;49.252;8.904;2023-05-08T00:21:19;100033.88;;;15.20;100.00
60489;BME280;46331;49.252;8.904;2023-05-08T00:22:00;100030.66;;;15.18;100.00
60489;BME280;46331;49.252;8.904;2023-05-08T00:22:40;100030.91;;;15.16;100.00
60489;BME280;46331;49.252;8.904;2023-05-08T00:23:21;100025.31;;;15.18;100.00
60489;BME280;46331;49.252;8.904;2023-05-08T00:24:01;100023.69;;;15.17;100.00
60489;BME280;46331;49.252;8.904;2023-05-08T00:24:42;100028.00;;;15.18;100.00
60489;BME280;46331;49.252;8.904;2023-05-08T00:25:22;100034.91;;;15.14;100.00
60489;BME280;46331;49.252;8.904;2023-05-08T00:26:03;100032.78;;;15.16;100.00
60489;BME280;46331;49.252;8.904;2023-05-08T00:26:44;100032.78;;;15.16;100.00
60489;BME280;46331;49.252;8.904;2023-05-08T00:27:25;100022.09;;;15.16;100.00
60489;BME280;46331;49.252;8.904;2023-05-08T00:28:05;100031.44;;;15.13;100.00
60489;BME280;46331;49.252;8.904;2023-05-08T00:28:46;100036.53;;;15.15;100.00
60489;BME280;46331;49.252;8.904;2023-05-08T00:29:27;100029.56;;;15.14;100.00
60489;BME280;46331;49.252;8.904;2023-05-08T00:30:08;100033.84;;;15.15;100.00
60489;BME280;46331;49.252;8.904;2023-05-08T00:30:49;100026.88;;;15.14;100.00
60489;BME280;46331;49.252;8.904;2023-05-08T00:31:29;100034.09;;;15.13;100.00
60489;BME280;46331;49.252;8.904;2023-05-08T00:32:11;100033.06;;;15.14;100.00
60489;BME280;46331;49.252;8.904;2023-05-08T00:32:55;100038.41;;;15.14;100.00
60489;BME280;46331;49.252;8.904;2023-05-08T00:33:35;100041.88;;;15.15;100.00
60489;BME280;46331;49.252;8.904;2023-05-08T00:34:16;100025.56;;;15.16;100.00
60489;BME280;46331;49.252;8.904;2023-05-08T00:34:56;100028.25;;;15.16;100.00
60489;BME280;46331;49.252;8.904;2023-05-08T00:35:38;100026.09;;;15.18;100.00
60489;BME280;46331;49.252;8.904;2023-05-08T00:36:20;100029.03;;;15.17;100.00
60489;BME280;46331;49.252;8.904;2023-05-08T00:37:01;100030.66;;;15.18;100.00
60489;BME280;46331;49.252;8.904;2023-05-08T00:37:43;100029.88;;;15.17;100.00
60489;BME280;46331;49.252;8.904;2023-05-08T00:38:23;100033.34;;;15.18;100.00
60489;BME280;46331;49.252;8.904;2023-05-08T00:39:04;100038.13;;;15.16;100.00
60489;BME280;46331;49.252;8.904;2023-05-08T00:39:44;100034.38;;;15.17;100.00
60489;BME280;46331;49.252;8.904;2023-05-08T00:40:25;100029.03;;;15.17;100.00
60489;BME280;46331;49.252;8.904;2023-05-08T00:41:06;100031.19;;;15.20;100.00
60489;BME280;46331;49.252;8.904;2023-05-08T00:41:46;100022.38;;;15.19;100.00
60489;BME280;46331;49.252;8.904;2023-05-08T00:42:27;100026.94;;;15.19;100.00
60489;BME280;46331;49.252;8.904;2023-05-08T00:43:07;100031.75;;;15.22;100.00
60489;BME280;46331;49.252;8.904;2023-05-08T00:43:48;100028.53;;;15.20;100.00
60489;BME280;46331;49.252;8.904;2023-05-08T00:44:28;100030.13;;;15.21;100.00
60489;BME280;46331;49.252;8.904;2023-05-08T00:45:09;100025.84;;;15.20;100.00
60489;BME280;46331;49.252;8.904;2023-05-08T00:45:50;100036.28;;;15.22;100.00
60489;BME280;46331;49.252;8.904;2023-05-08T00:46:34;100033.88;;;15.20;100.00
60489;BME280;46331;49.252;8.904;2023-05-08T00:47:15;100030.13;;;15.21;100.00
60489;BME280;46331;49.252;8.904;2023-05-08T00:47:56;100032.56;;;15.23;100.00
60489;BME280;46331;49.252;8.904;2023-05-08T00:48:37;100032.81;;;15.21;100.00
60489;BME280;46331;49.252;8.904;2023-05-08T00:49:19;100036.53;;;15.20;100.00
60489;BME280;46331;49.252;8.904;2023-05-08T00:50:00;100043.75;;;15.19;100.00
60489;BME280;46331;49.252;8.904;2023-05-08T00:50:41;100034.94;;;15.19;100.00
60489;BME280;46331;49.252;8.904;2023-05-08T00:51:23;100040.50;;;15.12;100.00
60489;BME280;46331;49.252;8.904;2023-05-08T00:52:04;100039.19;;;15.10;100.00
60489;BME280;46331;49.252;8.904;2023-05-08T00:52:48;100044.25;;;15.11;100.00
60489;BME280;46331;49.252;8.904;2023-05-08T00:53:32;100038.88;;;15.06;100.00
60489;BME280;46331;49.252;8.904;2023-05-08T00:54:13;100047.13;;;15.05;100.00
60489;BME280;46331;49.252;8.904;2023-05-08T00:54:54;100046.59;;;15.02;100.00
60489;BME280;46331;49.252;8.904;2023-05-08T00:55:35;100043.91;;;14.97;100.00
60489;BME280;46331;49.252;8.904;2023-05-08T00:56:17;100050.03;;;14.93;100.00
60489;BME280;46331;49.252;8.904;2023-05-08T00:56:59;100043.03;;;14.87;100.00
60489;BME280;46331;49.252;8.904;2023-05-08T00:57:40;100049.44;;;14.86;100.00
60489;BME280;46331;49.252;8.904;2023-05-08T00:58:21;100050.75;;;14.83;100.00
60489;BME280;46331;49.252;8.904;2023-05-08T00:59:13;100057.19;;;14.87;100.00
60489;BME280;46331;49.252;8.904;2023-05-08T00:59:55;100053.72;;;14.87;100.00
60489;BME280;46331;49.252;8.904;2023-05-08T01:00:36;100049.72;;;14.89;100.00
60489;BME280;46331;49.252;8.904;2023-05-08T01:01:18;100050.03;;;14.93;100.00
60489;BME280;46331;49.252;8.904;2023-05-08T01:01:59;100045.75;;;14.92;100.00
60489;BME280;46331;49.252;8.904;2023-05-08T01:02:40;100051.38;;;14.95;100.00
60489;BME280;46331;49.252;8.904;2023-05-08T01:03:22;100048.69;;;14.95;100.00
60489;BME280;46331;49.252;8.904;2023-05-08T01:04:03;100043.91;;;14.97;100.00
60489;BME280;46331;49.252;8.904;2023-05-08T01:04:45;100044.97;;;14.96;100.00
60489;BME280;46331;49.252;8.904;2023-05-08T01:05:28;100047.13;;;14.99;100.00
60489;BME280;46331;49.252;8.904;2023-05-08T01:06:09;100050.84;;;14.98;100.00
60489;BME280;46331;49.252;8.904;2023-05-08T01:06:50;100052.22;;;15.01;100.00
60489;BME280;46331;49.252;8.904;2023-05-08T01:07:31;100054.09;;;15.00;100.00
60489;BME280;46331;49.252;8.904;2023-05-08T01:08:12;100048.75;;;15.00;100.00
60489;BME280;46331;49.252;8.904;2023-05-08T01:08:52;100056.25;;;15.04;100.00
60489;BME280;46331;49.252;8.904;2023-05-08T01:09:33;100051.94;;;15.02;100.00
60489;BME280;46331;49.252;8.904;2023-05-08T01:10:13;100052.47;;;14.99;100.00
60489;BME280;46331;49.252;8.904;2023-05-08T01:11:55;100047.66;;;15.01;100.00
60489;BME280;46331;49.252;8.904;2023-05-08T01:14:23;100055.72;;;15.07;100.00
60489;BME280;46331;49.252;8.904;2023-05-08T01:15:36;100054.63;;;15.08;100.00
60489;BME280;46331;49.252;8.904;2023-05-08T01:20:17;100045.31;;;15.10;100.00
60489;BME280;46331;49.252;8.904;2023-05-08T01:21:04;100051.44;;;15.11;100.00
60489;BME280;46331;49.252;8.904;2023-05-08T01:21:53;100049.34;;;15.13;100.00
60489;BME280;46331;49.252;8.904;2023-05-08T01:24:18;100059.47;;;15.11;100.00
60489;BME280;46331;49.252;8.904;2023-05-08T01:25:10;100051.16;;;15.07;100.00
60489;BME280;46331;49.252;8.904;2023-05-08T01:30:26;100058.66;;;15.10;100.00
60489;BME280;46331;49.252;8.904;2023-05-08T01:32:29;100055.19;;;15.10;100.00
60489;BME280;46331;49.252;8.904;2023-05-08T01:33:20;100057.31;;;15.08;100.00
60489;BME280;46331;49.252;8.904;2023-05-08T01:34:06;100049.88;;;15.10;100.00
60489;BME280;46331;49.252;8.904;2023-05-08T01:35:13;100059.47;;;15.11;100.00
60489;BME280;46331;49.252;8.904;2023-05-08T01:36:01;100058.94;;;15.09;100.00
60489;BME280;46331;49.252;8.904;2023-05-08T01:37:10;100055.72;;;15.07;100.00
60489;BME280;46331;49.252;8.904;2023-05-08T01:37:56;100056.50;;;15.07;100.00
60489;BME280;46331;49.252;8.904;2023-05-08T01:38:39;100049.28;;;15.08;100.00
60489;BME280;46331;49.252;8.904;2023-05-08T01:39:43;100052.22;;;15.06;100.00
60489;BME280;46331;49.252;8.904;2023-05-08T01:41:29;100053.06;;;15.07;100.00
60489;BME280;46331;49.252;8.904;2023-05-08T01:43:27;100054.34;;;15.04;100.00
60489;BME280;46331;49.252;8.904;2023-05-08T01:44:15;100056.25;;;15.04;100.00
60489;BME280;46331;49.252;8.904;2023-05-08T01:45:02;100053.81;;;15.02;100.00
60489;BME280;46331;49.252;8.904;2023-05-08T01:45:46;100056.75;;;15.00;100.00
60489;BME280;46331;49.252;8.904;2023-05-08T01:46:31;100058.84;;;14.98;100.00
60489;BME280;46331;49.252;8.904;2023-05-08T01:47:13;100054.59;;;14.97;100.00
60489;BME280;46331;49.252;8.904;2023-05-08T01:48:08;100058.06;;;14.98;100.00
60489;BME280;46331;49.252;8.904;2023-05-08T01:49:05;100059.94;;;14.97;100.00
60489;BME280;46331;49.252;8.904;2023-05-08T01:49:49;100058.31;;;14.96;100.00
60489;BME280;46331;49.252;8.904;2023-05-08T01:50:47;100059.13;;;14.97;100.00
60489;BME280;46331;49.252;8.904;2023-05-08T01:51:35;100062.88;;;14.96;100.00
60489;BME280;46331;49.252;8.904;2023-05-08T01:52:21;100059.69;;;14.99;100.00
60489;BME280;46331;49.252;8.904;2023-05-08T01:53:15;100067.44;;;15.00;100.00
60489;BME280;46331;49.252;8.904;2023-05-08T01:53:59;100064.19;;;14.98;100.00
60489;BME280;46331;49.252;8.904;2023-05-08T01:54:50;100067.94;;;14.97;100.00
60489;BME280;46331;49.252;8.904;2023-05-08T01:55:36;100062.59;;;14.97;100.00
60489;BME280;46331;49.252;8.904;2023-05-08T01:56:22;100070.91;;;15.01;100.00
60489;BME280;46331;49.252;8.904;2023-05-08T01:57:05;100069.53;;;14.98;100.00
60489;BME280;46331;49.252;8.904;2023-05-08T01:57:51;100077.88;;;15.02;100.00
60489;BME280;46331;49.252;8.904;2023-05-08T01:58:34;100072.53;;;15.02;100.00
60489;BME280;46331;49.252;8.904;2023-05-08T01:59:18;100072.81;;;15.06;100.00
60489;BME280;46331;49.252;8.904;2023-05-08T02:00:02;100071.69;;;15.01;100.00
60489;BME280;46331;49.252;8.904;2023-05-08T02:00:51;100071.44;;;15.03;100.00
60489;BME280;46331;49.252;8.904;2023-05-08T02:01:33;100070.91;;;15.06;100.00
60489;BME280;46331;49.252;8.904;2023-05-08T02:02:14;100075.72;;;15.04;100.00
60489;BME280;46331;49.252;8.904;2023-05-08T02:02:57;100072.81;;;15.06;100.00
60489;BME280;46331;49.252;8.904;2023-05-08T02:03:40;100068.50;;;15.05;100.00
60489;BME280;46331;49.252;8.904;2023-05-08T02:04:22;100078.16;;;15.06;100.00
60489;BME280;46331;49.252;8.904;2023-05-08T02:05:05;100074.69;;;15.05;100.00
60489;BME280;46331;49.252;8.904;2023-05-08T02:05:48;100079.19;;;15.05;100.00
60489;BME280;46331;49.252;8.904;2023-05-08T02:06:30;100075.47;;;15.06;100.00
60489;BME280;46331;49.252;8.904;2023-05-08T02:07:11;100069.03;;;15.01;100.00
60489;BME280;46331;49.252;8.904;2023-05-08T02:07:54;100069.03;;;15.01;100.00
60489;BME280;46331;49.252;8.904;2023-05-08T02:08:35;100076.53;;;15.05;100.00
60489;BME280;46331;49.252;8.904;2023-05-08T02:09:19;100069.59;;;15.04;100.00
60489;BME280;46331;49.252;8.904;2023-05-08T02:10:03;100078.41;;;15.04;100.00
60489;BME280;46331;49.252;8.904;2023-05-08T02:10:45;100072.25;;;15.04;100.00
60489;BME280;46331;49.252;8.904;2023-05-08T02:11:29;100074.09;;;15.03;100.00
60489;BME280;46331;49.252;8.904;2023-05-08T02:12:13;100070.66;;;15.02;100.00
60489;BME280;46331;49.252;8.904;2023-05-08T02:12:55;100071.69;;;15.01;100.00
60489;BME280;46331;49.252;8.904;2023-05-08T02:13:39;100072.25;;;15.04;100.00
60489;BME280;46331;49.252;8.904;2023-05-08T02:14:21;100078.13;;;15.00;100.00
60489;BME280;46331;49.252;8.904;2023-05-08T02:15:02;100070.91;;;15.01;100.00
60489;BME280;46331;49.252;8.904;2023-05-08T02:15:46;100073.84;;;15.05;100.00
60489;BME280;46331;49.252;8.904;2023-05-08T02:16:27;100077.03;;;15.01;100.00
60489;BME280;46331;49.252;8.904;2023-05-08T02:17:09;100067.97;;;15.02;100.00
60489;BME280;46331;49.252;8.904;2023-05-08T02:17:53;100067.19;;;15.07;100.00
60489;BME280;46331;49.252;8.904;2023-05-08T02:18:34;100070.66;;;15.08;100.00
60489;BME280;46331;49.252;8.904;2023-05-08T02:19:17;100071.50;;;15.08;100.00
60489;BME280;46331;49.252;8.904;2023-05-08T02:20:00;100071.22;;;15.10;100.00
60489;BME280;46331;49.252;8.904;2023-05-08T02:20:43;100072.81;;;15.06;100.00
60489;BME280;46331;49.252;8.904;2023-05-08T02:21:24;100071.75;;;15.07;100.00
60489;BME280;46331;49.252;8.904;2023-05-08T02:22:07;100065.31;;;15.08;100.00
60489;BME280;46331;49.252;8.904;2023-05-08T02:22:49;100066.91;;;15.04;100.00
60489;BME280;46331;49.252;8.904;2023-05-08T02:23:32;100070.66;;;15.02;100.00
60489;BME280;46331;49.252;8.904;2023-05-08T02:24:13;100065.59;;;15.06;100.00
60489;BME280;46331;49.252;8.904;2023-05-08T02:24:55;100062.91;;;15.06;100.00
60489;BME280;46331;49.252;8.904;2023-05-08T02:25:37;100063.47;;;15.08;100.00
60489;BME280;46331;49.252;8.904;2023-05-08T02:26:19;100062.91;;;15.06;100.00
60489;BME280;46331;49.252;8.904;2023-05-08T02:27:01;100064.28;;;15.09;100.00
60489;BME280;46331;49.252;8.904;2023-05-08T02:27:45;100062.97;;;15.11;100.00
60489;BME280;46331;49.252;8.904;2023-05-08T02:28:28;100077.09;;;15.07;100.00
60489;BME280;46331;49.252;8.904;2023-05-08T02:29:10;100061.84;;;15.07;100.00
60489;BME280;46331;49.252;8.904;2023-05-08T02:29:50;100064.28;;;15.09;100.00
60489;BME280;46331;49.252;8.904;2023-05-08T02:30:33;100069.06;;;15.07;100.00
60489;BME280;46331;49.252;8.904;2023-05-08T02:31:15;100074.94;;;15.09;100.00
60489;BME280;46331;49.252;8.904;2023-05-08T02:31:56;100071.22;;;15.10;100.00
60489;BME280;46331;49.252;8.904;2023-05-08T02:32:37;100074.94;;;15.09;100.00
60489;BME280;46331;49.252;8.904;2023-05-08T02:33:19;100068.81;;;15.08;100.00
60489;BME280;46331;49.252;8.904;2023-05-08T02:34:04;100071.75;;;15.07;100.00
60489;BME280;46331;49.252;8.904;2023-05-08T02:34:50;100068.25;;;15.06;100.00
60489;BME280;46331;49.252;8.904;2023-05-08T02:35:32;100070.66;;;15.02;100.00
60489;BME280;46331;49.252;8.904;2023-05-08T02:36:17;100066.34;;;15.01;100.00
60489;BME280;46331;49.252;8.904;2023-05-08T02:36:58;100073.56;;;15.01;100.00
60489;BME280;46331;49.252;8.904;2023-05-08T02:37:42;100064.19;;;14.98;100.00
60489;BME280;46331;49.252;8.904;2023-05-08T02:38:24;100069.53;;;14.98;100.00
60489;BME280;46331;49.252;8.904;2023-05-08T02:39:07;100064.75;;;15.00;100.00
60489;BME280;46331;49.252;8.904;2023-05-08T02:39:52;100072.53;;;15.02;100.00
60489;BME280;46331;49.252;8.904;2023-05-08T02:40:40;100076.78;;;15.03;100.00
60489;BME280;46331;49.252;8.904;2023-05-08T02:41:22;100070.91;;;15.01;100.00
60489;BME280;46331;49.252;8.904;2023-05-08T02:42:04;100069.28;;;15.00;100.00
60489;BME280;46331;49.252;8.904;2023-05-08T02:42:45;100066.34;;;14.96;100.00
60489;BME280;46331;49.252;8.904;2023-05-08T02:43:26;100068.72;;;14.93;100.00
60489;BME280;46331;49.252;8.904;2023-05-08T02:44:07;100068.97;;;14.91;100.00
60489;BME280;46331;49.252;8.904;2023-05-08T02:44:48;100074.56;;;14.90;100.00
60489;BME280;46331;49.252;8.904;2023-05-08T02:45:40;100078.91;;;14.96;100.00
60489;BME280;46331;49.252;8.904;2023-05-08T02:46:46;100069.50;;;14.88;100.00
60489;BME280;46331;49.252;8.904;2023-05-08T02:47:51;100067.09;;;14.87;100.00
60489;BME280;46331;49.252;8.904;2023-05-08T02:48:40;100064.69;;;14.90;100.00
60489;BME280;46331;49.252;8.904;2023-05-08T02:51:17;100070.06;;;14.95;100.00
60489;BME280;46331;49.252;8.904;2023-05-08T02:52:06;100070.06;;;14.95;100.00
60489;BME280;46331;49.252;8.904;2023-05-08T02:52:53;100068.47;;;14.94;100.00
60489;BME280;46331;49.252;8.904;2023-05-08T02:53:46;100075.91;;;14.92;100.00
60489;BME280;46331;49.252;8.904;2023-05-08T02:54:39;100070.03;;;14.90;100.00
60489;BME280;46331;49.252;8.904;2023-05-08T02:55:34;100077.25;;;14.90;100.00
60489;BME280;46331;49.252;8.904;2023-05-08T02:57:21;100073.22;;;14.87;100.00
60489;BME280;46331;49.252;8.904;2023-05-08T02:58:17;100073.81;;;14.94;100.00
60489;BME280;46331;49.252;8.904;2023-05-08T02:59:08;100078.03;;;14.90;100.00
60489;BME280;46331;49.252;8.904;2023-05-08T02:59:59;100077.50;;;14.88;100.00
60489;BME280;46331;49.252;8.904;2023-05-08T03:00:55;100078.03;;;14.85;100.00
60489;BME280;46331;49.252;8.904;2023-05-08T03:01:44;100080.94;;;14.83;100.00
60489;BME280;46331;49.252;8.904;2023-05-08T03:02:34;100077.75;;;14.87;100.00
60489;BME280;46331;49.252;8.904;2023-05-08T03:03:21;100076.44;;;14.89;100.00
60489;BME280;46331;49.252;8.904;2023-05-08T03:04:07;100081.75;;;14.84;100.00
60489;BME280;46331;49.252;8.904;2023-05-08T03:04:50;100077.16;;;14.79;100.00
60489;BME280;46331;49.252;8.904;2023-05-08T03:05:36;100074.75;;;14.78;100.00
60489;BME280;46331;49.252;8.904;2023-05-08T03:06:20;100079.84;;;14.79;100.00
60489;BME280;46331;49.252;8.904;2023-05-08T03:07:04;100076.38;;;14.79;100.00
60489;BME280;46331;49.252;8.904;2023-05-08T03:07:49;100077.69;;;14.76;100.00
60489;BME280;46331;49.252;8.904;2023-05-08T03:08:33;100077.69;;;14.76;100.00
60489;BME280;46331;49.252;8.904;2023-05-08T03:09:18;100072.34;;;14.76;100.00
60489;BME280;46331;49.252;8.904;2023-05-08T03:10:04;100073.69;;;14.79;100.00
60489;BME280;46331;49.252;8.904;2023-05-08T03:10:48;100068.63;;;14.77;100.00
60489;BME280;46331;49.252;8.904;2023-05-08T03:11:37;100075.56;;;14.78;100.00
60489;BME280;46331;49.252;8.904;2023-05-08T03:12:22;100077.69;;;14.76;100.00
60489;BME280;46331;49.252;8.904;2023-05-08T03:13:05;100073.69;;;14.79;100.00
60489;BME280;46331;49.252;8.904;2023-05-08T03:13:49;100071.81;;;14.79;100.00
60489;BME280;46331;49.252;8.904;2023-05-08T03:14:37;100075.56;;;14.78;100.00
60489;BME280;46331;49.252;8.904;2023-05-08T03:15:33;100076.63;;;14.77;100.00
60489;BME280;46331;49.252;8.904;2023-05-08T03:16:19;100076.91;;;14.81;100.00
60489;BME280;46331;49.252;8.904;2023-05-08T03:17:05;100070.78;;;14.80;100.00
60489;BME280;46331;49.252;8.904;2023-05-08T03:17:47;100075.84;;;14.82;100.00
60489;BME280;46331;49.252;8.904;2023-05-08T03:18:35;100079.59;;;14.81;100.00
60489;BME280;46331;49.252;8.904;2023-05-08T03:19:30;100074.78;;;14.83;100.00
60489;BME280;46331;49.252;8.904;2023-05-08T03:20:15;100077.16;;;14.79;100.00
60489;BME280;46331;49.252;8.904;2023-05-08T03:20:58;100081.72;;;14.79;100.00
60489;BME280;46331;49.252;8.904;2023-05-08T03:21:39;100077.44;;;14.78;100.00
60489;BME280;46331;49.252;8.904;2023-05-08T03:22:24;100079.84;;;14.79;100.00
60489;BME280;46331;49.252;8.904;2023-05-08T03:23:08;100080.09;;;14.78;100.00
60489;BME280;46331;49.252;8.904;2023-05-08T03:23:51;100073.13;;;14.77;100.00
60489;BME280;46331;49.252;8.904;2023-05-08T03:24:33;100076.31;;;14.74;100.00
60489;BME280;46331;49.252;8.904;2023-05-08T03:25:17;100069.94;;;14.75;100.00
60489;BME280;46331;49.252;8.904;2023-05-08T03:25:59;100077.94;;;14.75;100.00
60489;BME280;46331;49.252;8.904;2023-05-08T03:26:41;100071.53;;;14.76;100.00
60489;BME280;46331;49.252;8.904;2023-05-08T03:27:22;100073.66;;;14.74;100.00
60489;BME280;46331;49.252;8.904;2023-05-08T03:28:04;100072.84;;;14.73;100.00
60489;BME280;46331;49.252;8.904;2023-05-08T03:28:47;100073.91;;;14.72;100.00
60489;BME280;46331;49.252;8.904;2023-05-08T03:29:29;100073.38;;;14.70;100.00
60489;BME280;46331;49.252;8.904;2023-05-08T03:30:11;100070.94;;;14.69;100.00
60489;BME280;46331;49.252;8.904;2023-05-08T03:30:55;100073.34;;;14.65;100.00
60489;BME280;46331;49.252;8.904;2023-05-08T03:31:38;100071.97;;;14.62;100.00
60489;BME280;46331;49.252;8.904;2023-05-08T03:32:20;100072.75;;;14.63;100.00
60489;BME280;46331;49.252;8.904;2023-05-08T03:33:04;100073.25;;;14.60;100.00
60489;BME280;46331;49.252;8.904;2023-05-08T03:33:47;100072.44;;;14.59;100.00
60489;BME280;46331;49.252;8.904;2023-05-08T03:34:30;100070.03;;;14.58;100.00
60489;BME280;46331;49.252;8.904;2023-05-08T03:35:14;100070.84;;;14.58;100.00
60489;BME280;46331;49.252;8.904;2023-05-08T03:35:56;100072.44;;;14.59;100.00
60489;BME280;46331;49.252;8.904;2023-05-08T03:36:37;100070.84;;;14.58;100.00
60489;BME280;46331;49.252;8.904;2023-05-08T03:37:17;100077.78;;;14.59;100.00
60489;BME280;46331;49.252;8.904;2023-05-08T03:37:58;100071.97;;;14.62;100.00
60489;BME280;46331;49.252;8.904;2023-05-08T03:38:39;100075.44;;;14.63;100.00
60489;BME280;46331;49.252;8.904;2023-05-08T03:39:21;100073.59;;;14.63;100.00
60489;BME280;46331;49.252;8.904;2023-05-08T03:40:02;100070.91;;;14.63;100.00
60489;BME280;46331;49.252;8.904;2023-05-08T03:40:44;100067.69;;;14.61;100.00
60489;BME280;46331;49.252;8.904;2023-05-08T03:41:25;100070.91;;;14.63;100.00
60489;BME280;46331;49.252;8.904;2023-05-08T03:42:06;100066.63;;;14.62;100.00
60489;BME280;46331;49.252;8.904;2023-05-08T03:42:47;100074.91;;;14.61;100.00
60489;BME280;46331;49.252;8.904;2023-05-08T03:43:30;100073.03;;;14.61;100.00
60489;BME280;46331;49.252;8.904;2023-05-08T03:44:14;100066.63;;;14.62;100.00
60489;BME280;46331;49.252;8.904;2023-05-08T03:44:56;100066.63;;;14.62;100.00
60489;BME280;46331;49.252;8.904;2023-05-08T03:45:38;100074.91;;;14.61;100.00
60489;BME280;46331;49.252;8.904;2023-05-08T03:46:19;100063.44;;;14.60;100.00
60489;BME280;46331;49.252;8.904;2023-05-08T03:47:01;100071.44;;;14.60;100.00
60489;BME280;46331;49.252;8.904;2023-05-08T03:47:42;100069.78;;;14.59;100.00
60489;BME280;46331;49.252;8.904;2023-05-08T03:48:23;100062.81;;;14.58;100.00
60489;BME280;46331;49.252;8.904;2023-05-08T03:49:06;100066.00;;;14.55;100.00
60489;BME280;46331;49.252;8.904;2023-05-08T03:49:49;100068.13;;;14.53;100.00
60489;BME280;46331;49.252;8.904;2023-05-08T03:50:31;100069.75;;;14.54;100.00
60489;BME280;46331;49.252;8.904;2023-05-08T03:51:14;100067.63;;;14.56;100.00
60489;BME280;46331;49.252;8.904;2023-05-08T03:51:55;100067.09;;;14.54;100.00
60489;BME280;46331;49.252;8.904;2023-05-08T03:52:37;100066.81;;;14.56;100.00
60489;BME280;46331;49.252;8.904;2023-05-08T03:53:17;100071.09;;;14.57;100.00
60489;BME280;46331;49.252;8.904;2023-05-08T03:53:58;100071.06;;;14.52;100.00
60489;BME280;46331;49.252;8.904;2023-05-08T03:54:39;100073.47;;;14.53;100.00
60489;BME280;46331;49.252;8.904;2023-05-08T03:55:19;100075.09;;;14.54;100.00
60489;BME280;46331;49.252;8.904;2023-05-08T03:56:01;100068.94;;;14.54;100.00
60489;BME280;46331;49.252;8.904;2023-05-08T03:56:42;100076.41;;;14.52;100.00
60489;BME280;46331;49.252;8.904;2023-05-08T03:57:30;100070.25;;;14.51;100.00
60489;BME280;46331;49.252;8.904;2023-05-08T03:58:20;100072.09;;;14.51;100.00
60489;BME280;46331;49.252;8.904;2023-05-08T03:59:15;100071.06;;;14.52;100.00
60489;BME280;46331;49.252;8.904;2023-05-08T04:02:21;100072.97;;;14.56;100.00
60489;BME280;46331;49.252;8.904;2023-05-08T04:03:15;100076.44;;;14.57;100.00
60489;BME280;46331;49.252;8.904;2023-05-08T04:04:53;100076.16;;;14.58;100.00
60489;BME280;46331;49.252;8.904;2023-05-08T04:05:40;100085.56;;;14.61;100.00
60489;BME280;46331;49.252;8.904;2023-05-08T04:06:28;100086.59;;;14.60;100.00
60489;BME280;46331;49.252;8.904;2023-05-08T04:08:22;100086.84;;;14.58;100.00
60489;BME280;46331;49.252;8.904;2023-05-08T04:09:12;100086.38;;;14.61;100.00
60489;BME280;46331;49.252;8.904;2023-05-08T04:10:06;100083.13;;;14.59;100.00